Aérodrome :
LOGIN :

S'inscrire | Disclaimer

   EN    FR    IT 

 










Légende :    VFR   VFR Marginal   IFR   IFR Intensif   IFR Très Intensif
Visi : 
Plafond : 
>= 8 km
>= 3000ft
5 à 8 km
1000 à 3000 ft
1500m à 5 km
500 à 1000 ft
800 à 1500m
200 à 500 ft
< 800m
< 200 ft
Symboles :   Orages  Brouillard  Fortes neiges  Fortes précipitations  Vent > 20 kt
SIGMETs :   Divers  Orages  Givrage  Turbulence  Onde Orograph.  Cendres Volcan.






- Altitude de l'aérodrome : 436 ft
- Code IATA : BTS


LZIB - Bratislava

DERNIER METAR :
  • 131530Z VRB02KT 9999 FEW046 28/18 Q1011 NOSIG

METARs EXPIRÉS :
  • 131500Z VRB02KT 9999 FEW046 28/18 Q1011 NOSIG
  • 131430Z 32003KT 250V020 9999 FEW045 29/17 Q1011 NOSIG
  • 131400Z 01003KT 300V050 9999 FEW043 29/17 Q1011 NOSIG
  • 131330Z 05004KT 010V100 9999 FEW042 28/19 Q1011 NOSIG
  • 131300Z 36004KT 320V120 9999 FEW042 28/18 Q1012 NOSIG
  • 131230Z VRB03KT 9999 FEW042 28/18 Q1012 NOSIG
  • 131200Z VRB04KT 9999 FEW040 27/17 Q1012 NOSIG
  • 131130Z 34005KT 260V030 9999 FEW037 27/18 Q1012 NOSIG
  • 131100Z 34005KT 300V020 9999 SCT034 26/18 Q1012 NOSIG

TAF TAF LZIB
Valide du 13 à 12h jusqu'au 14 à 12h UTC


131115Z 1312/1412 34006KT 9999 SCT035
BECMG 1312/1314 04007KT
TEMPO 1319/1403 2000 TSRA SCT027CB BKN035
PROB40 1403/1406 2000 BCFG SCT004
BECMG 1405/1407 27005KT CAVOK



MET'MAP, la Météo Aéronautique d'un coup d'oeil ! - Copyright ORBIFLY Décembre 2007 - Disclaimer

ORBIFLY MET'MAP TEAM :

Programmation & Développement : Alexandra Zaïnal
Sur une idée originale de : Baudouin d'Aumeries
Soutien technique & logistique : Manuel Goepfert
Assistance : Marc-Olivier Méhu




SOURCES & CREDITS :

   NOAA